sensor_id;sensor_type;location;lat;lon;timestamp;P1;durP1;ratioP1;P2;durP2;ratioP2
36787;SDS011;22738;45.560;9.434;2022-11-20T00:01:40;34.60;;;16.80;;
36787;SDS011;22738;45.560;9.434;2022-11-20T00:08:21;38.95;;;16.45;;
36787;SDS011;22738;45.560;9.434;2022-11-20T00:15:03;36.80;;;17.38;;
36787;SDS011;22738;45.560;9.434;2022-11-20T00:21:45;37.33;;;16.17;;
36787;SDS011;22738;45.560;9.434;2022-11-20T00:28:26;39.70;;;17.15;;
36787;SDS011;22738;45.560;9.434;2022-11-20T00:35:07;39.38;;;15.27;;
36787;SDS011;22738;45.560;9.434;2022-11-20T00:41:48;34.72;;;14.05;;
36787;SDS011;22738;45.560;9.434;2022-11-20T00:48:29;22.88;;;11.18;;
36787;SDS011;22738;45.560;9.434;2022-11-20T00:55:11;30.17;;;11.55;;
36787;SDS011;22738;45.560;9.434;2022-11-20T01:01:52;25.25;;;10.15;;
36787;SDS011;22738;45.560;9.434;2022-11-20T01:08:33;26.40;;;10.23;;
36787;SDS011;22738;45.560;9.434;2022-11-20T01:15:16;16.45;;;7.53;;
36787;SDS011;22738;45.560;9.434;2022-11-20T01:21:57;15.23;;;6.50;;
36787;SDS011;22738;45.560;9.434;2022-11-20T01:28:38;11.00;;;5.43;;
36787;SDS011;22738;45.560;9.434;2022-11-20T01:35:20;15.18;;;6.38;;
36787;SDS011;22738;45.560;9.434;2022-11-20T01:42:01;12.63;;;5.47;;
36787;SDS011;22738;45.560;9.434;2022-11-20T01:49:04;12.68;;;5.90;;
36787;SDS011;22738;45.560;9.434;2022-11-20T01:55:52;9.65;;;4.35;;
36787;SDS011;22738;45.560;9.434;2022-11-20T02:02:36;8.43;;;3.97;;
36787;SDS011;22738;45.560;9.434;2022-11-20T02:09:20;8.25;;;3.83;;
36787;SDS011;22738;45.560;9.434;2022-11-20T02:16:01;7.28;;;4.47;;
36787;SDS011;22738;45.560;9.434;2022-11-20T02:22:49;8.05;;;3.92;;
36787;SDS011;22738;45.560;9.434;2022-11-20T02:29:41;8.70;;;3.72;;
36787;SDS011;22738;45.560;9.434;2022-11-20T02:36:26;7.47;;;3.83;;
36787;SDS011;22738;45.560;9.434;2022-11-20T02:43:09;7.18;;;3.38;;
36787;SDS011;22738;45.560;9.434;2022-11-20T02:49:50;6.65;;;3.50;;
36787;SDS011;22738;45.560;9.434;2022-11-20T02:56:32;7.50;;;3.53;;
36787;SDS011;22738;45.560;9.434;2022-11-20T03:03:13;6.60;;;3.10;;
36787;SDS011;22738;45.560;9.434;2022-11-20T03:09:54;7.57;;;3.13;;
36787;SDS011;22738;45.560;9.434;2022-11-20T03:16:35;7.10;;;2.95;;
36787;SDS011;22738;45.560;9.434;2022-11-20T03:23:16;8.15;;;3.47;;
36787;SDS011;22738;45.560;9.434;2022-11-20T03:29:57;12.98;;;3.67;;
36787;SDS011;22738;45.560;9.434;2022-11-20T03:36:41;9.43;;;4.05;;
36787;SDS011;22738;45.560;9.434;2022-11-20T03:43:23;11.45;;;3.95;;
36787;SDS011;22738;45.560;9.434;2022-11-20T03:50:05;6.70;;;3.27;;
36787;SDS011;22738;45.560;9.434;2022-11-20T03:56:47;9.30;;;4.22;;
36787;SDS011;22738;45.560;9.434;2022-11-20T04:03:28;4.90;;;3.00;;
36787;SDS011;22738;45.560;9.434;2022-11-20T04:10:09;6.75;;;3.80;;
36787;SDS011;22738;45.560;9.434;2022-11-20T04:16:50;6.57;;;3.55;;
36787;SDS011;22738;45.560;9.434;2022-11-20T04:23:31;6.28;;;3.10;;
36787;SDS011;22738;45.560;9.434;2022-11-20T04:30:14;7.57;;;2.90;;
36787;SDS011;22738;45.560;9.434;2022-11-20T04:36:56;5.20;;;2.75;;
36787;SDS011;22738;45.560;9.434;2022-11-20T04:43:37;5.05;;;2.75;;
36787;SDS011;22738;45.560;9.434;2022-11-20T04:50:18;5.75;;;2.45;;
36787;SDS011;22738;45.560;9.434;2022-11-20T04:56:59;5.18;;;2.67;;
36787;SDS011;22738;45.560;9.434;2022-11-20T05:03:40;4.82;;;2.30;;
36787;SDS011;22738;45.560;9.434;2022-11-20T05:10:22;3.28;;;1.67;;
36787;SDS011;22738;45.560;9.434;2022-11-20T05:17:03;4.22;;;2.25;;
36787;SDS011;22738;45.560;9.434;2022-11-20T05:23:45;4.80;;;2.53;;
36787;SDS011;22738;45.560;9.434;2022-11-20T05:30:26;3.80;;;1.90;;
36787;SDS011;22738;45.560;9.434;2022-11-20T05:37:07;2.50;;;1.73;;
36787;SDS011;22738;45.560;9.434;2022-11-20T05:43:48;3.00;;;1.67;;
36787;SDS011;22738;45.560;9.434;2022-11-20T05:50:31;3.27;;;1.77;;
36787;SDS011;22738;45.560;9.434;2022-11-20T05:57:12;3.78;;;2.08;;
36787;SDS011;22738;45.560;9.434;2022-11-20T06:03:53;6.68;;;2.33;;
36787;SDS011;22738;45.560;9.434;2022-11-20T06:10:35;6.28;;;3.22;;
36787;SDS011;22738;45.560;9.434;2022-11-20T06:17:16;3.33;;;2.33;;
36787;SDS011;22738;45.560;9.434;2022-11-20T06:23:57;3.25;;;2.15;;
36787;SDS011;22738;45.560;9.434;2022-11-20T06:30:38;4.93;;;2.70;;
36787;SDS011;22738;45.560;9.434;2022-11-20T06:37:25;4.65;;;2.70;;
36787;SDS011;22738;45.560;9.434;2022-11-20T06:44:06;13.27;;;4.35;;
36787;SDS011;22738;45.560;9.434;2022-11-20T06:50:47;7.57;;;3.85;;
36787;SDS011;22738;45.560;9.434;2022-11-20T06:57:28;9.70;;;3.70;;
36787;SDS011;22738;45.560;9.434;2022-11-20T07:04:10;8.65;;;3.95;;
36787;SDS011;22738;45.560;9.434;2022-11-20T07:10:51;5.78;;;3.50;;
36787;SDS011;22738;45.560;9.434;2022-11-20T07:17:32;9.45;;;3.80;;
36787;SDS011;22738;45.560;9.434;2022-11-20T07:24:13;8.23;;;3.92;;
36787;SDS011;22738;45.560;9.434;2022-11-20T07:30:54;7.50;;;3.97;;
36787;SDS011;22738;45.560;9.434;2022-11-20T07:37:36;9.93;;;4.68;;
36787;SDS011;22738;45.560;9.434;2022-11-20T07:44:17;13.55;;;5.40;;
36787;SDS011;22738;45.560;9.434;2022-11-20T07:50:58;9.68;;;3.95;;
36787;SDS011;22738;45.560;9.434;2022-11-20T07:57:40;9.82;;;4.07;;
36787;SDS011;22738;45.560;9.434;2022-11-20T08:04:22;5.45;;;2.88;;
36787;SDS011;22738;45.560;9.434;2022-11-20T08:11:05;6.93;;;3.30;;
36787;SDS011;22738;45.560;9.434;2022-11-20T08:18:11;6.45;;;3.63;;
36787;SDS011;22738;45.560;9.434;2022-11-20T08:24:52;9.05;;;3.90;;
36787;SDS011;22738;45.560;9.434;2022-11-20T08:31:34;6.05;;;3.25;;
36787;SDS011;22738;45.560;9.434;2022-11-20T08:38:15;4.85;;;2.85;;
36787;SDS011;22738;45.560;9.434;2022-11-20T08:44:56;3.38;;;1.67;;
36787;SDS011;22738;45.560;9.434;2022-11-20T08:51:38;9.55;;;3.42;;
36787;SDS011;22738;45.560;9.434;2022-11-20T08:58:20;4.60;;;2.92;;
36787;SDS011;22738;45.560;9.434;2022-11-20T09:05:01;6.35;;;2.80;;
36787;SDS011;22738;45.560;9.434;2022-11-20T09:11:43;2.90;;;2.30;;
36787;SDS011;22738;45.560;9.434;2022-11-20T09:18:24;5.45;;;2.67;;
36787;SDS011;22738;45.560;9.434;2022-11-20T09:25:07;3.65;;;2.05;;
36787;SDS011;22738;45.560;9.434;2022-11-20T09:31:48;3.83;;;2.53;;
36787;SDS011;22738;45.560;9.434;2022-11-20T09:38:30;5.45;;;3.15;;
36787;SDS011;22738;45.560;9.434;2022-11-20T09:51:59;5.57;;;3.20;;
36787;SDS011;22738;45.560;9.434;2022-11-20T09:58:54;6.65;;;2.83;;
36787;SDS011;22738;45.560;9.434;2022-11-20T10:05:45;5.05;;;3.20;;
36787;SDS011;22738;45.560;9.434;2022-11-20T10:12:43;6.10;;;3.10;;
36787;SDS011;22738;45.560;9.434;2022-11-20T10:19:47;6.05;;;3.40;;
36787;SDS011;22738;45.560;9.434;2022-11-20T10:33:27;8.05;;;3.90;;
36787;SDS011;22738;45.560;9.434;2022-11-20T10:47:08;5.93;;;3.17;;
36787;SDS011;22738;45.560;9.434;2022-11-20T11:01:03;5.85;;;2.92;;
36787;SDS011;22738;45.560;9.434;2022-11-20T11:07:46;5.55;;;2.92;;
36787;SDS011;22738;45.560;9.434;2022-11-20T11:14:30;6.57;;;3.33;;
36787;SDS011;22738;45.560;9.434;2022-11-20T11:21:23;5.35;;;3.00;;
36787;SDS011;22738;45.560;9.434;2022-11-20T11:28:19;7.95;;;3.30;;
36787;SDS011;22738;45.560;9.434;2022-11-20T11:35:03;9.18;;;4.07;;
36787;SDS011;22738;45.560;9.434;2022-11-20T11:41:59;9.63;;;4.35;;
36787;SDS011;22738;45.560;9.434;2022-11-20T11:48:41;8.48;;;4.18;;
36787;SDS011;22738;45.560;9.434;2022-11-20T12:09:13;10.73;;;5.50;;
36787;SDS011;22738;45.560;9.434;2022-11-20T12:15:56;6.33;;;4.30;;
36787;SDS011;22738;45.560;9.434;2022-11-20T12:30:04;11.23;;;5.70;;
36787;SDS011;22738;45.560;9.434;2022-11-20T12:43:54;10.43;;;5.88;;
36787;SDS011;22738;45.560;9.434;2022-11-20T13:05:15;13.95;;;7.90;;
36787;SDS011;22738;45.560;9.434;2022-11-20T13:12:19;15.43;;;6.63;;
36787;SDS011;22738;45.560;9.434;2022-11-20T13:19:17;11.63;;;6.07;;
36787;SDS011;22738;45.560;9.434;2022-11-20T13:26:03;11.93;;;5.45;;
36787;SDS011;22738;45.560;9.434;2022-11-20T13:32:58;10.68;;;5.85;;
36787;SDS011;22738;45.560;9.434;2022-11-20T13:39:49;8.45;;;5.03;;
36787;SDS011;22738;45.560;9.434;2022-11-20T13:46:37;9.13;;;5.32;;
36787;SDS011;22738;45.560;9.434;2022-11-20T13:53:28;9.63;;;4.65;;
36787;SDS011;22738;45.560;9.434;2022-11-20T14:00:18;10.10;;;6.15;;
36787;SDS011;22738;45.560;9.434;2022-11-20T14:07:01;10.30;;;5.70;;
36787;SDS011;22738;45.560;9.434;2022-11-20T14:14:30;10.05;;;6.20;;
36787;SDS011;22738;45.560;9.434;2022-11-20T14:20:59;17.20;;;7.53;;
36787;SDS011;22738;45.560;9.434;2022-11-20T14:27:42;15.32;;;8.07;;
36787;SDS011;22738;45.560;9.434;2022-11-20T14:34:27;14.02;;;8.50;;
36787;SDS011;22738;45.560;9.434;2022-11-20T14:41:20;13.27;;;7.60;;
36787;SDS011;22738;45.560;9.434;2022-11-20T14:48:02;13.18;;;7.32;;
36787;SDS011;22738;45.560;9.434;2022-11-20T14:54:53;13.32;;;7.70;;
36787;SDS011;22738;45.560;9.434;2022-11-20T15:01:37;15.00;;;7.57;;
36787;SDS011;22738;45.560;9.434;2022-11-20T15:08:19;13.52;;;7.57;;
36787;SDS011;22738;45.560;9.434;2022-11-20T15:15:01;11.90;;;6.65;;
36787;SDS011;22738;45.560;9.434;2022-11-20T15:21:43;13.40;;;7.30;;
36787;SDS011;22738;45.560;9.434;2022-11-20T15:35:10;13.52;;;7.07;;
36787;SDS011;22738;45.560;9.434;2022-11-20T15:41:51;13.30;;;5.93;;
36787;SDS011;22738;45.560;9.434;2022-11-20T15:48:37;11.00;;;6.40;;
36787;SDS011;22738;45.560;9.434;2022-11-20T15:55:20;18.40;;;8.88;;
36787;SDS011;22738;45.560;9.434;2022-11-20T16:02:01;15.32;;;7.43;;
36787;SDS011;22738;45.560;9.434;2022-11-20T16:08:42;14.05;;;7.60;;
36787;SDS011;22738;45.560;9.434;2022-11-20T16:15:23;20.70;;;8.63;;
36787;SDS011;22738;45.560;9.434;2022-11-20T16:22:23;16.45;;;8.65;;
36787;SDS011;22738;45.560;9.434;2022-11-20T16:29:05;15.65;;;7.80;;
36787;SDS011;22738;45.560;9.434;2022-11-20T16:42:32;16.25;;;8.55;;
36787;SDS011;22738;45.560;9.434;2022-11-20T16:49:14;17.95;;;9.27;;
36787;SDS011;22738;45.560;9.434;2022-11-20T16:55:55;17.52;;;8.85;;
36787;SDS011;22738;45.560;9.434;2022-11-20T17:02:36;19.67;;;9.45;;
36787;SDS011;22738;45.560;9.434;2022-11-20T17:09:18;21.00;;;8.60;;
36787;SDS011;22738;45.560;9.434;2022-11-20T17:16:03;17.58;;;9.40;;
36787;SDS011;22738;45.560;9.434;2022-11-20T17:22:46;17.63;;;8.88;;
36787;SDS011;22738;45.560;9.434;2022-11-20T17:29:27;17.35;;;8.98;;
36787;SDS011;22738;45.560;9.434;2022-11-20T17:36:09;15.80;;;8.75;;
36787;SDS011;22738;45.560;9.434;2022-11-20T17:42:54;21.40;;;10.93;;
36787;SDS011;22738;45.560;9.434;2022-11-20T17:49:35;21.15;;;8.88;;
36787;SDS011;22738;45.560;9.434;2022-11-20T17:56:16;18.45;;;9.13;;
36787;SDS011;22738;45.560;9.434;2022-11-20T18:03:17;18.55;;;9.43;;
36787;SDS011;22738;45.560;9.434;2022-11-20T18:09:58;19.08;;;9.98;;
36787;SDS011;22738;45.560;9.434;2022-11-20T18:16:45;17.55;;;9.18;;
36787;SDS011;22738;45.560;9.434;2022-11-20T18:23:32;18.65;;;8.63;;
36787;SDS011;22738;45.560;9.434;2022-11-20T18:30:13;21.40;;;11.20;;
36787;SDS011;22738;45.560;9.434;2022-11-20T18:36:54;24.73;;;12.90;;
36787;SDS011;22738;45.560;9.434;2022-11-20T18:43:35;20.92;;;10.57;;
36787;SDS011;22738;45.560;9.434;2022-11-20T18:50:35;22.13;;;10.30;;
36787;SDS011;22738;45.560;9.434;2022-11-20T18:57:17;24.33;;;10.13;;
36787;SDS011;22738;45.560;9.434;2022-11-20T19:03:59;23.13;;;11.60;;
36787;SDS011;22738;45.560;9.434;2022-11-20T19:10:40;26.20;;;14.18;;
36787;SDS011;22738;45.560;9.434;2022-11-20T19:17:21;35.72;;;16.25;;
36787;SDS011;22738;45.560;9.434;2022-11-20T19:24:02;32.50;;;13.27;;
36787;SDS011;22738;45.560;9.434;2022-11-20T19:30:44;21.05;;;11.68;;
36787;SDS011;22738;45.560;9.434;2022-11-20T19:37:25;28.02;;;12.10;;
36787;SDS011;22738;45.560;9.434;2022-11-20T19:44:07;26.63;;;12.73;;
36787;SDS011;22738;45.560;9.434;2022-11-20T19:50:53;21.80;;;11.32;;
36787;SDS011;22738;45.560;9.434;2022-11-20T19:57:34;23.92;;;13.05;;
36787;SDS011;22738;45.560;9.434;2022-11-20T20:04:15;27.95;;;12.52;;
36787;SDS011;22738;45.560;9.434;2022-11-20T20:10:57;23.20;;;11.50;;
36787;SDS011;22738;45.560;9.434;2022-11-20T20:17:38;23.67;;;12.00;;
36787;SDS011;22738;45.560;9.434;2022-11-20T20:24:19;23.77;;;11.13;;
36787;SDS011;22738;45.560;9.434;2022-11-20T20:37:52;23.95;;;10.98;;
36787;SDS011;22738;45.560;9.434;2022-11-20T20:44:33;23.15;;;11.40;;
36787;SDS011;22738;45.560;9.434;2022-11-20T20:51:33;21.88;;;10.48;;
36787;SDS011;22738;45.560;9.434;2022-11-20T20:58:14;23.38;;;11.73;;
36787;SDS011;22738;45.560;9.434;2022-11-20T21:04:55;19.25;;;11.45;;
36787;SDS011;22738;45.560;9.434;2022-11-20T21:11:36;21.02;;;10.80;;
36787;SDS011;22738;45.560;9.434;2022-11-20T21:18:19;21.17;;;11.13;;
36787;SDS011;22738;45.560;9.434;2022-11-20T21:25:01;25.40;;;12.20;;
36787;SDS011;22738;45.560;9.434;2022-11-20T21:31:42;21.77;;;9.63;;
36787;SDS011;22738;45.560;9.434;2022-11-20T21:38:24;22.45;;;10.75;;
36787;SDS011;22738;45.560;9.434;2022-11-20T21:45:05;22.10;;;10.48;;
36787;SDS011;22738;45.560;9.434;2022-11-20T21:51:46;21.73;;;9.93;;
36787;SDS011;22738;45.560;9.434;2022-11-20T21:58:27;19.98;;;10.57;;
36787;SDS011;22738;45.560;9.434;2022-11-20T22:05:08;23.15;;;11.25;;
36787;SDS011;22738;45.560;9.434;2022-11-20T22:11:49;21.95;;;11.43;;
36787;SDS011;22738;45.560;9.434;2022-11-20T22:18:30;25.10;;;13.30;;
36787;SDS011;22738;45.560;9.434;2022-11-20T22:25:11;20.35;;;10.07;;
36787;SDS011;22738;45.560;9.434;2022-11-20T22:31:53;23.45;;;10.57;;
36787;SDS011;22738;45.560;9.434;2022-11-20T22:38:34;22.55;;;13.10;;
36787;SDS011;22738;45.560;9.434;2022-11-20T22:45:16;18.45;;;10.73;;
36787;SDS011;22738;45.560;9.434;2022-11-20T22:51:57;22.38;;;11.57;;
36787;SDS011;22738;45.560;9.434;2022-11-20T22:58:39;23.17;;;11.68;;
36787;SDS011;22738;45.560;9.434;2022-11-20T23:05:22;21.83;;;10.88;;
36787;SDS011;22738;45.560;9.434;2022-11-20T23:12:03;24.92;;;11.75;;
36787;SDS011;22738;45.560;9.434;2022-11-20T23:18:44;21.08;;;11.57;;
36787;SDS011;22738;45.560;9.434;2022-11-20T23:25:26;24.63;;;12.75;;
36787;SDS011;22738;45.560;9.434;2022-11-20T23:32:07;23.50;;;11.57;;
36787;SDS011;22738;45.560;9.434;2022-11-20T23:38:49;23.92;;;12.23;;
36787;SDS011;22738;45.560;9.434;2022-11-20T23:45:30;19.95;;;10.55;;
36787;SDS011;22738;45.560;9.434;2022-11-20T23:52:11;21.58;;;11.43;;
36787;SDS011;22738;45.560;9.434;2022-11-20T23:58:52;21.38;;;11.45;;
